createdAt,value
2019-01-25T00:00:00.282Z,0
2019-01-25T00:30:00.211Z,0.67
2019-01-25T01:00:00.267Z,3.33
2019-01-25T01:30:00.196Z,0
2019-01-25T02:00:00.189Z,0
2019-01-25T02:30:00.246Z,0
2019-01-25T03:00:00.259Z,0
2019-01-25T03:30:00.225Z,0
2019-01-25T04:00:00.295Z,0
2019-01-25T04:30:00.245Z,0
2019-01-25T05:00:00.252Z,0
2019-01-25T05:30:00.235Z,0
2019-01-25T06:00:00.239Z,1.33
2019-01-25T06:30:00.170Z,0
2019-01-25T07:00:00.185Z,0
2019-01-25T07:30:00.397Z,1.33
2019-01-25T08:00:00.519Z,4
2019-01-25T08:30:00.405Z,2.67
2019-01-25T09:00:00.256Z,4
2019-01-25T09:30:00.224Z,4
2019-01-25T10:00:00.230Z,2
2019-01-25T10:30:00.210Z,2
2019-01-25T11:00:00.197Z,1.33
2019-01-25T11:30:00.374Z,2.67
2019-01-25T12:00:00.270Z,2
2019-01-25T12:30:00.468Z,2
2019-01-25T13:00:00.177Z,4
2019-01-25T13:30:00.188Z,2.67
2019-01-25T14:00:00.239Z,4
2019-01-25T14:30:00.224Z,1.33
2019-01-25T15:00:00.241Z,4
2019-01-25T15:30:00.272Z,2
2019-01-25T16:00:00.182Z,2.67
2019-01-25T16:30:00.180Z,2.67
2019-01-25T17:00:00.258Z,2.67
2019-01-25T17:30:00.262Z,2
2019-01-25T18:00:00.204Z,5.34
2019-01-25T18:30:00.220Z,6
2019-01-25T19:00:00.274Z,4.67
2019-01-25T19:30:00.183Z,3.33
2019-01-25T20:00:00.221Z,3.33
2019-01-25T20:30:00.217Z,5.34
2019-01-25T21:00:00.294Z,2
2019-01-25T21:30:00.232Z,4
2019-01-25T22:00:00.236Z,2.67
2019-01-25T22:30:00.182Z,4.67
2019-01-25T23:00:00.173Z,3.33
2019-01-25T23:30:00.196Z,3.33
